sensor_id;sensor_type;location;lat;lon;timestamp;temperature;humidity
12013;DHT22;6065;48.138;16.402;2022-09-03T00:02:08;17.70;92.50
12013;DHT22;6065;48.138;16.402;2022-09-03T00:04:39;17.70;92.20
12013;DHT22;6065;48.138;16.402;2022-09-03T00:07:10;17.70;92.20
12013;DHT22;6065;48.138;16.402;2022-09-03T00:09:40;17.70;92.20
12013;DHT22;6065;48.138;16.402;2022-09-03T00:12:09;17.70;92.20
12013;DHT22;6065;48.138;16.402;2022-09-03T00:14:38;17.70;92.20
12013;DHT22;6065;48.138;16.402;2022-09-03T00:17:08;17.70;92.20
12013;DHT22;6065;48.138;16.402;2022-09-03T00:19:38;17.70;92.20
12013;DHT22;6065;48.138;16.402;2022-09-03T00:22:08;17.60;92.20
12013;DHT22;6065;48.138;16.402;2022-09-03T00:24:37;17.60;92.30
12013;DHT22;6065;48.138;16.402;2022-09-03T00:27:05;17.60;92.40
12013;DHT22;6065;48.138;16.402;2022-09-03T00:29:34;17.60;92.40
12013;DHT22;6065;48.138;16.402;2022-09-03T00:32:04;17.50;92.50
12013;DHT22;6065;48.138;16.402;2022-09-03T00:34:34;17.50;92.60
12013;DHT22;6065;48.138;16.402;2022-09-03T00:37:03;17.50;92.70
12013;DHT22;6065;48.138;16.402;2022-09-03T00:39:30;17.40;92.70
12013;DHT22;6065;48.138;16.402;2022-09-03T00:42:00;17.40;92.70
12013;DHT22;6065;48.138;16.402;2022-09-03T00:44:35;17.40;92.80
12013;DHT22;6065;48.138;16.402;2022-09-03T00:47:08;17.30;92.80
12013;DHT22;6065;48.138;16.402;2022-09-03T00:49:39;17.30;93.00
12013;DHT22;6065;48.138;16.402;2022-09-03T00:52:11;17.30;93.00
12013;DHT22;6065;48.138;16.402;2022-09-03T00:54:41;17.30;93.00
12013;DHT22;6065;48.138;16.402;2022-09-03T00:57:15;17.30;93.00
12013;DHT22;6065;48.138;16.402;2022-09-03T00:59:44;17.30;93.10
12013;DHT22;6065;48.138;16.402;2022-09-03T01:02:16;17.20;93.10
12013;DHT22;6065;48.138;16.402;2022-09-03T01:04:49;17.20;93.20
12013;DHT22;6065;48.138;16.402;2022-09-03T01:07:18;17.20;93.20
12013;DHT22;6065;48.138;16.402;2022-09-03T01:09:51;17.10;93.20
12013;DHT22;6065;48.138;16.402;2022-09-03T01:12:23;17.10;93.20
12013;DHT22;6065;48.138;16.402;2022-09-03T01:14:59;17.10;93.30
12013;DHT22;6065;48.138;16.402;2022-09-03T01:17:31;17.10;93.30
12013;DHT22;6065;48.138;16.402;2022-09-03T01:20:06;17.10;93.40
12013;DHT22;6065;48.138;16.402;2022-09-03T01:25:25;17.00;93.60
12013;DHT22;6065;48.138;16.402;2022-09-03T01:28:03;16.90;93.70
12013;DHT22;6065;48.138;16.402;2022-09-03T01:30:37;16.90;93.70
12013;DHT22;6065;48.138;16.402;2022-09-03T01:33:07;16.90;93.80
12013;DHT22;6065;48.138;16.402;2022-09-03T01:35:41;16.80;93.80
12013;DHT22;6065;48.138;16.402;2022-09-03T01:38:11;16.80;93.90
12013;DHT22;6065;48.138;16.402;2022-09-03T01:40:42;16.70;94.10
12013;DHT22;6065;48.138;16.402;2022-09-03T01:43:20;16.70;94.10
12013;DHT22;6065;48.138;16.402;2022-09-03T01:45:53;16.70;94.10
12013;DHT22;6065;48.138;16.402;2022-09-03T01:48:31;16.70;94.10
12013;DHT22;6065;48.138;16.402;2022-09-03T01:51:02;16.70;94.10
12013;DHT22;6065;48.138;16.402;2022-09-03T01:53:36;16.70;94.20
12013;DHT22;6065;48.138;16.402;2022-09-03T01:56:10;16.60;94.20
12013;DHT22;6065;48.138;16.402;2022-09-03T01:58:44;16.60;94.20
12013;DHT22;6065;48.138;16.402;2022-09-03T02:01:14;16.60;94.30
12013;DHT22;6065;48.138;16.402;2022-09-03T02:03:43;16.60;94.40
12013;DHT22;6065;48.138;16.402;2022-09-03T02:06:11;16.50;94.40
12013;DHT22;6065;48.138;16.402;2022-09-03T02:08:38;16.50;94.50
12013;DHT22;6065;48.138;16.402;2022-09-03T02:11:07;16.50;94.50
12013;DHT22;6065;48.138;16.402;2022-09-03T02:13:36;16.50;94.50
12013;DHT22;6065;48.138;16.402;2022-09-03T02:16:06;16.50;94.50
12013;DHT22;6065;48.138;16.402;2022-09-03T02:18:36;16.50;94.50
12013;DHT22;6065;48.138;16.402;2022-09-03T02:21:06;16.50;94.60
12013;DHT22;6065;48.138;16.402;2022-09-03T02:23:32;16.50;94.60
12013;DHT22;6065;48.138;16.402;2022-09-03T02:26:00;16.50;94.60
12013;DHT22;6065;48.138;16.402;2022-09-03T02:28:27;16.50;94.60
12013;DHT22;6065;48.138;16.402;2022-09-03T02:30:54;16.50;94.60
12013;DHT22;6065;48.138;16.402;2022-09-03T02:33:23;16.40;94.70
12013;DHT22;6065;48.138;16.402;2022-09-03T02:35:50;16.40;94.80
12013;DHT22;6065;48.138;16.402;2022-09-03T02:38:17;16.40;94.90
12013;DHT22;6065;48.138;16.402;2022-09-03T02:40:44;16.40;94.90
12013;DHT22;6065;48.138;16.402;2022-09-03T02:43:12;16.30;94.80
12013;DHT22;6065;48.138;16.402;2022-09-03T02:45:40;16.30;95.00
12013;DHT22;6065;48.138;16.402;2022-09-03T02:48:08;16.30;94.90
12013;DHT22;6065;48.138;16.402;2022-09-03T02:50:40;16.30;95.00
12013;DHT22;6065;48.138;16.402;2022-09-03T02:53:07;16.20;94.90
12013;DHT22;6065;48.138;16.402;2022-09-03T02:55:33;16.20;95.00
12013;DHT22;6065;48.138;16.402;2022-09-03T02:58:00;16.20;95.10
12013;DHT22;6065;48.138;16.402;2022-09-03T03:00:27;16.20;95.20
12013;DHT22;6065;48.138;16.402;2022-09-03T03:02:54;16.10;95.10
12013;DHT22;6065;48.138;16.402;2022-09-03T03:05:22;16.10;95.10
12013;DHT22;6065;48.138;16.402;2022-09-03T03:07:51;16.10;95.20
12013;DHT22;6065;48.138;16.402;2022-09-03T03:10:21;16.10;95.20
12013;DHT22;6065;48.138;16.402;2022-09-03T03:12:47;16.00;95.20
12013;DHT22;6065;48.138;16.402;2022-09-03T03:15:14;16.10;95.30
12013;DHT22;6065;48.138;16.402;2022-09-03T03:17:41;16.10;95.40
12013;DHT22;6065;48.138;16.402;2022-09-03T03:20:08;16.00;95.30
12013;DHT22;6065;48.138;16.402;2022-09-03T03:22:34;16.00;95.40
12013;DHT22;6065;48.138;16.402;2022-09-03T03:25:03;16.00;95.40
12013;DHT22;6065;48.138;16.402;2022-09-03T03:27:30;16.00;95.40
12013;DHT22;6065;48.138;16.402;2022-09-03T03:29:56;16.00;95.50
12013;DHT22;6065;48.138;16.402;2022-09-03T03:32:23;16.00;95.40
12013;DHT22;6065;48.138;16.402;2022-09-03T03:34:50;16.00;95.50
12013;DHT22;6065;48.138;16.402;2022-09-03T03:37:16;15.90;95.60
12013;DHT22;6065;48.138;16.402;2022-09-03T03:39:43;15.90;95.60
12013;DHT22;6065;48.138;16.402;2022-09-03T03:42:11;15.90;95.70
12013;DHT22;6065;48.138;16.402;2022-09-03T03:44:38;15.90;95.70
12013;DHT22;6065;48.138;16.402;2022-09-03T03:47:06;15.80;95.60
12013;DHT22;6065;48.138;16.402;2022-09-03T03:49:33;15.80;95.80
12013;DHT22;6065;48.138;16.402;2022-09-03T03:52:00;15.80;95.70
12013;DHT22;6065;48.138;16.402;2022-09-03T03:54:27;15.80;95.80
12013;DHT22;6065;48.138;16.402;2022-09-03T03:56:54;15.80;96.10
12013;DHT22;6065;48.138;16.402;2022-09-03T03:59:22;15.70;96.00
12013;DHT22;6065;48.138;16.402;2022-09-03T04:01:48;15.70;96.10
12013;DHT22;6065;48.138;16.402;2022-09-03T04:04:15;15.70;96.10
12013;DHT22;6065;48.138;16.402;2022-09-03T04:06:42;15.60;96.20
12013;DHT22;6065;48.138;16.402;2022-09-03T04:09:09;15.60;96.20
12013;DHT22;6065;48.138;16.402;2022-09-03T04:11:35;15.60;96.30
12013;DHT22;6065;48.138;16.402;2022-09-03T04:14:03;15.60;96.30
12013;DHT22;6065;48.138;16.402;2022-09-03T04:16:31;15.70;96.40
12013;DHT22;6065;48.138;16.402;2022-09-03T04:18:58;15.60;96.20
12013;DHT22;6065;48.138;16.402;2022-09-03T04:21:25;15.60;96.30
12013;DHT22;6065;48.138;16.402;2022-09-03T04:23:52;15.60;96.30
12013;DHT22;6065;48.138;16.402;2022-09-03T04:26:20;15.60;96.40
12013;DHT22;6065;48.138;16.402;2022-09-03T04:28:47;15.60;96.30
12013;DHT22;6065;48.138;16.402;2022-09-03T04:31:14;15.60;96.30
12013;DHT22;6065;48.138;16.402;2022-09-03T04:33:42;15.50;96.30
12013;DHT22;6065;48.138;16.402;2022-09-03T04:36:10;15.50;96.40
12013;DHT22;6065;48.138;16.402;2022-09-03T04:38:38;15.40;96.60
12013;DHT22;6065;48.138;16.402;2022-09-03T04:41:05;15.40;96.70
12013;DHT22;6065;48.138;16.402;2022-09-03T04:43:32;15.40;96.70
12013;DHT22;6065;48.138;16.402;2022-09-03T04:45:59;15.40;96.70
12013;DHT22;6065;48.138;16.402;2022-09-03T04:48:26;15.40;96.80
12013;DHT22;6065;48.138;16.402;2022-09-03T04:51:00;15.40;96.80
12013;DHT22;6065;48.138;16.402;2022-09-03T04:53:30;15.40;96.90
12013;DHT22;6065;48.138;16.402;2022-09-03T04:55:57;15.40;96.80
12013;DHT22;6065;48.138;16.402;2022-09-03T04:58:23;15.40;96.70
12013;DHT22;6065;48.138;16.402;2022-09-03T05:00:50;15.40;96.80
12013;DHT22;6065;48.138;16.402;2022-09-03T05:03:17;15.40;96.90
12013;DHT22;6065;48.138;16.402;2022-09-03T05:05:56;15.40;97.00
12013;DHT22;6065;48.138;16.402;2022-09-03T05:08:23;15.40;97.00
12013;DHT22;6065;48.138;16.402;2022-09-03T05:10:56;15.40;97.00
12013;DHT22;6065;48.138;16.402;2022-09-03T05:13:23;15.40;97.00
12013;DHT22;6065;48.138;16.402;2022-09-03T05:15:50;15.40;96.90
12013;DHT22;6065;48.138;16.402;2022-09-03T05:18:16;15.40;97.00
12013;DHT22;6065;48.138;16.402;2022-09-03T05:20:43;15.50;97.10
12013;DHT22;6065;48.138;16.402;2022-09-03T05:23:11;15.50;97.20
12013;DHT22;6065;48.138;16.402;2022-09-03T05:25:38;15.50;97.10
12013;DHT22;6065;48.138;16.402;2022-09-03T05:28:05;15.60;97.30
12013;DHT22;6065;48.138;16.402;2022-09-03T05:30:32;15.60;97.30
12013;DHT22;6065;48.138;16.402;2022-09-03T05:32:58;15.60;97.40
12013;DHT22;6065;48.138;16.402;2022-09-03T05:35:25;15.60;97.40
12013;DHT22;6065;48.138;16.402;2022-09-03T05:37:53;15.70;97.40
12013;DHT22;6065;48.138;16.402;2022-09-03T05:40:21;15.70;97.40
12013;DHT22;6065;48.138;16.402;2022-09-03T05:42:53;15.70;97.50
12013;DHT22;6065;48.138;16.402;2022-09-03T05:45:21;15.70;97.50
12013;DHT22;6065;48.138;16.402;2022-09-03T05:47:49;15.80;97.50
12013;DHT22;6065;48.138;16.402;2022-09-03T05:50:15;15.80;97.50
12013;DHT22;6065;48.138;16.402;2022-09-03T05:52:42;15.80;97.50
12013;DHT22;6065;48.138;16.402;2022-09-03T05:55:09;15.80;97.40
12013;DHT22;6065;48.138;16.402;2022-09-03T05:57:37;15.80;97.70
12013;DHT22;6065;48.138;16.402;2022-09-03T06:00:04;15.80;97.70
12013;DHT22;6065;48.138;16.402;2022-09-03T06:02:31;15.80;97.80
12013;DHT22;6065;48.138;16.402;2022-09-03T06:04:58;15.90;97.90
12013;DHT22;6065;48.138;16.402;2022-09-03T06:07:24;15.90;97.80
12013;DHT22;6065;48.138;16.402;2022-09-03T06:09:51;16.00;97.90
12013;DHT22;6065;48.138;16.402;2022-09-03T06:12:18;16.00;97.90
12013;DHT22;6065;48.138;16.402;2022-09-03T06:14:47;16.00;97.90
12013;DHT22;6065;48.138;16.402;2022-09-03T06:17:13;16.00;97.90
12013;DHT22;6065;48.138;16.402;2022-09-03T06:19:40;16.10;97.90
12013;DHT22;6065;48.138;16.402;2022-09-03T06:22:07;16.10;97.90
12013;DHT22;6065;48.138;16.402;2022-09-03T06:24:33;16.10;97.90
12013;DHT22;6065;48.138;16.402;2022-09-03T06:27:01;16.20;97.90
12013;DHT22;6065;48.138;16.402;2022-09-03T06:29:27;16.20;98.00
12013;DHT22;6065;48.138;16.402;2022-09-03T06:31:55;16.20;98.00
12013;DHT22;6065;48.138;16.402;2022-09-03T06:34:22;16.30;98.10
12013;DHT22;6065;48.138;16.402;2022-09-03T06:36:49;16.30;98.20
12013;DHT22;6065;48.138;16.402;2022-09-03T06:39:17;16.40;98.00
12013;DHT22;6065;48.138;16.402;2022-09-03T06:41:43;16.40;97.90
12013;DHT22;6065;48.138;16.402;2022-09-03T06:44:12;16.50;97.90
12013;DHT22;6065;48.138;16.402;2022-09-03T06:46:39;16.40;97.70
12013;DHT22;6065;48.138;16.402;2022-09-03T06:49:09;16.40;97.90
12013;DHT22;6065;48.138;16.402;2022-09-03T06:51:35;16.40;97.80
12013;DHT22;6065;48.138;16.402;2022-09-03T06:54:03;16.50;97.80
12013;DHT22;6065;48.138;16.402;2022-09-03T06:56:31;16.50;97.80
12013;DHT22;6065;48.138;16.402;2022-09-03T06:58:58;16.60;97.80
12013;DHT22;6065;48.138;16.402;2022-09-03T07:01:26;16.70;97.80
12013;DHT22;6065;48.138;16.402;2022-09-03T07:03:56;16.70;97.80
12013;DHT22;6065;48.138;16.402;2022-09-03T07:06:25;16.80;97.80
12013;DHT22;6065;48.138;16.402;2022-09-03T07:08:52;16.80;97.80
12013;DHT22;6065;48.138;16.402;2022-09-03T07:11:20;16.90;97.90
12013;DHT22;6065;48.138;16.402;2022-09-03T07:13:50;16.90;97.90
12013;DHT22;6065;48.138;16.402;2022-09-03T07:16:18;16.90;97.70
12013;DHT22;6065;48.138;16.402;2022-09-03T07:18:45;17.00;97.80
12013;DHT22;6065;48.138;16.402;2022-09-03T07:21:12;17.00;97.80
12013;DHT22;6065;48.138;16.402;2022-09-03T07:23:41;17.00;97.70
12013;DHT22;6065;48.138;16.402;2022-09-03T07:26:08;17.10;97.80
12013;DHT22;6065;48.138;16.402;2022-09-03T07:28:38;17.10;97.90
12013;DHT22;6065;48.138;16.402;2022-09-03T07:31:05;17.20;98.10
12013;DHT22;6065;48.138;16.402;2022-09-03T07:33:32;17.30;97.90
12013;DHT22;6065;48.138;16.402;2022-09-03T07:36:02;17.30;97.90
12013;DHT22;6065;48.138;16.402;2022-09-03T07:38:30;17.40;97.90
12013;DHT22;6065;48.138;16.402;2022-09-03T07:40:58;17.40;97.90
12013;DHT22;6065;48.138;16.402;2022-09-03T07:43:26;17.50;97.90
12013;DHT22;6065;48.138;16.402;2022-09-03T07:45:53;17.50;98.30
12013;DHT22;6065;48.138;16.402;2022-09-03T07:48:21;17.60;98.40
12013;DHT22;6065;48.138;16.402;2022-09-03T07:50:48;17.70;98.20
12013;DHT22;6065;48.138;16.402;2022-09-03T07:53:15;17.80;98.20
12013;DHT22;6065;48.138;16.402;2022-09-03T07:55:42;17.90;98.20
12013;DHT22;6065;48.138;16.402;2022-09-03T07:58:11;17.90;98.60
12013;DHT22;6065;48.138;16.402;2022-09-03T08:00:38;18.00;98.50
12013;DHT22;6065;48.138;16.402;2022-09-03T08:03:05;18.00;98.50
12013;DHT22;6065;48.138;16.402;2022-09-03T08:05:33;18.10;98.50
12013;DHT22;6065;48.138;16.402;2022-09-03T08:08:01;18.10;98.50
12013;DHT22;6065;48.138;16.402;2022-09-03T08:10:27;18.20;98.20
12013;DHT22;6065;48.138;16.402;2022-09-03T08:12:55;18.40;98.30
12013;DHT22;6065;48.138;16.402;2022-09-03T08:15:23;18.40;98.00
12013;DHT22;6065;48.138;16.402;2022-09-03T08:17:50;18.50;97.90
12013;DHT22;6065;48.138;16.402;2022-09-03T08:20:17;18.60;98.00
12013;DHT22;6065;48.138;16.402;2022-09-03T08:22:44;18.70;98.10
12013;DHT22;6065;48.138;16.402;2022-09-03T08:25:11;18.80;97.60
12013;DHT22;6065;48.138;16.402;2022-09-03T08:27:38;19.00;97.40
12013;DHT22;6065;48.138;16.402;2022-09-03T08:30:05;19.10;97.50
12013;DHT22;6065;48.138;16.402;2022-09-03T08:32:37;19.20;97.50
12013;DHT22;6065;48.138;16.402;2022-09-03T08:35:04;19.30;97.40
12013;DHT22;6065;48.138;16.402;2022-09-03T08:37:31;19.40;97.30
12013;DHT22;6065;48.138;16.402;2022-09-03T08:39:58;19.50;97.10
12013;DHT22;6065;48.138;16.402;2022-09-03T08:42:27;19.60;97.00
12013;DHT22;6065;48.138;16.402;2022-09-03T08:44:56;19.70;97.10
12013;DHT22;6065;48.138;16.402;2022-09-03T08:47:25;19.80;96.60
12013;DHT22;6065;48.138;16.402;2022-09-03T08:49:55;19.90;96.80
12013;DHT22;6065;48.138;16.402;2022-09-03T08:52:24;20.10;96.40
12013;DHT22;6065;48.138;16.402;2022-09-03T08:54:54;20.20;95.90
12013;DHT22;6065;48.138;16.402;2022-09-03T08:57:23;20.30;95.50
12013;DHT22;6065;48.138;16.402;2022-09-03T08:59:51;20.50;95.60
12013;DHT22;6065;48.138;16.402;2022-09-03T09:02:20;20.60;95.60
12013;DHT22;6065;48.138;16.402;2022-09-03T09:04:53;20.60;95.50
12013;DHT22;6065;48.138;16.402;2022-09-03T09:07:26;20.70;95.20
12013;DHT22;6065;48.138;16.402;2022-09-03T09:09:56;20.70;95.60
12013;DHT22;6065;48.138;16.402;2022-09-03T09:12:28;20.80;95.70
12013;DHT22;6065;48.138;16.402;2022-09-03T09:15:03;20.80;95.60
12013;DHT22;6065;48.138;16.402;2022-09-03T09:17:36;20.80;96.00
12013;DHT22;6065;48.138;16.402;2022-09-03T09:20:08;20.90;95.80
12013;DHT22;6065;48.138;16.402;2022-09-03T09:22:39;21.10;95.20
12013;DHT22;6065;48.138;16.402;2022-09-03T09:25:08;21.20;95.20
12013;DHT22;6065;48.138;16.402;2022-09-03T09:27:41;21.30;95.40
12013;DHT22;6065;48.138;16.402;2022-09-03T09:30:16;21.40;95.50
12013;DHT22;6065;48.138;16.402;2022-09-03T09:32:43;21.50;95.60
12013;DHT22;6065;48.138;16.402;2022-09-03T09:35:12;21.50;94.80
12013;DHT22;6065;48.138;16.402;2022-09-03T09:37:47;21.40;94.90
12013;DHT22;6065;48.138;16.402;2022-09-03T09:40:21;21.40;94.80
12013;DHT22;6065;48.138;16.402;2022-09-03T09:42:50;21.30;95.10
12013;DHT22;6065;48.138;16.402;2022-09-03T09:45:22;21.20;94.90
12013;DHT22;6065;48.138;16.402;2022-09-03T09:47:49;21.20;94.80
12013;DHT22;6065;48.138;16.402;2022-09-03T09:50:21;21.10;95.00
12013;DHT22;6065;48.138;16.402;2022-09-03T09:52:59;21.20;95.50
12013;DHT22;6065;48.138;16.402;2022-09-03T09:55:27;21.20;95.30
12013;DHT22;6065;48.138;16.402;2022-09-03T09:58:03;21.30;95.10
12013;DHT22;6065;48.138;16.402;2022-09-03T10:00:30;21.50;95.30
12013;DHT22;6065;48.138;16.402;2022-09-03T10:02:58;21.70;95.00
12013;DHT22;6065;48.138;16.402;2022-09-03T10:05:25;21.80;95.20
12013;DHT22;6065;48.138;16.402;2022-09-03T10:07:56;21.90;95.00
12013;DHT22;6065;48.138;16.402;2022-09-03T10:10:25;22.10;94.80
12013;DHT22;6065;48.138;16.402;2022-09-03T10:12:55;22.10;95.00
12013;DHT22;6065;48.138;16.402;2022-09-03T10:15:25;22.30;94.50
12013;DHT22;6065;48.138;16.402;2022-09-03T10:17:56;22.40;94.40
12013;DHT22;6065;48.138;16.402;2022-09-03T10:20:29;22.60;94.40
12013;DHT22;6065;48.138;16.402;2022-09-03T10:23:02;22.70;94.80
12013;DHT22;6065;48.138;16.402;2022-09-03T10:25:37;22.80;94.00
12013;DHT22;6065;48.138;16.402;2022-09-03T10:28:06;22.90;94.00
12013;DHT22;6065;48.138;16.402;2022-09-03T10:30:37;23.00;93.70
12013;DHT22;6065;48.138;16.402;2022-09-03T10:33:14;23.10;93.50
12013;DHT22;6065;48.138;16.402;2022-09-03T10:35:44;23.10;93.60
12013;DHT22;6065;48.138;16.402;2022-09-03T10:38:14;23.20;93.60
12013;DHT22;6065;48.138;16.402;2022-09-03T10:40:48;23.20;93.40
12013;DHT22;6065;48.138;16.402;2022-09-03T10:43:22;23.20;93.30
12013;DHT22;6065;48.138;16.402;2022-09-03T10:45:58;23.30;93.40
12013;DHT22;6065;48.138;16.402;2022-09-03T10:48:34;23.30;93.00
12013;DHT22;6065;48.138;16.402;2022-09-03T10:51:05;23.30;92.90
12013;DHT22;6065;48.138;16.402;2022-09-03T10:53:38;23.30;93.10
12013;DHT22;6065;48.138;16.402;2022-09-03T10:56:12;23.30;93.50
12013;DHT22;6065;48.138;16.402;2022-09-03T10:58:44;23.40;93.20
12013;DHT22;6065;48.138;16.402;2022-09-03T11:01:17;23.40;92.80
12013;DHT22;6065;48.138;16.402;2022-09-03T11:03:47;23.30;92.50
12013;DHT22;6065;48.138;16.402;2022-09-03T11:06:15;23.30;92.90
12013;DHT22;6065;48.138;16.402;2022-09-03T11:08:45;23.30;93.20
12013;DHT22;6065;48.138;16.402;2022-09-03T11:11:16;23.40;93.20
12013;DHT22;6065;48.138;16.402;2022-09-03T11:13:45;23.50;93.60
12013;DHT22;6065;48.138;16.402;2022-09-03T11:16:14;23.70;93.20
12013;DHT22;6065;48.138;16.402;2022-09-03T11:18:46;24.00;93.20
12013;DHT22;6065;48.138;16.402;2022-09-03T11:21:15;24.10;92.40
12013;DHT22;6065;48.138;16.402;2022-09-03T11:23:44;24.30;92.10
12013;DHT22;6065;48.138;16.402;2022-09-03T11:26:11;24.30;91.90
12013;DHT22;6065;48.138;16.402;2022-09-03T11:28:41;24.40;92.10
12013;DHT22;6065;48.138;16.402;2022-09-03T11:31:16;24.60;92.20
12013;DHT22;6065;48.138;16.402;2022-09-03T11:33:44;24.60;91.90
12013;DHT22;6065;48.138;16.402;2022-09-03T11:36:12;24.70;91.90
12013;DHT22;6065;48.138;16.402;2022-09-03T11:38:38;24.70;91.40
12013;DHT22;6065;48.138;16.402;2022-09-03T11:41:10;24.80;91.50
12013;DHT22;6065;48.138;16.402;2022-09-03T11:43:38;24.80;91.20
12013;DHT22;6065;48.138;16.402;2022-09-03T11:46:08;24.70;91.30
12013;DHT22;6065;48.138;16.402;2022-09-03T11:48:38;24.60;91.50
12013;DHT22;6065;48.138;16.402;2022-09-03T11:51:15;24.60;91.40
12013;DHT22;6065;48.138;16.402;2022-09-03T11:53:52;24.60;91.40
12013;DHT22;6065;48.138;16.402;2022-09-03T11:56:18;24.70;91.10
12013;DHT22;6065;48.138;16.402;2022-09-03T11:58:45;24.80;90.90
12013;DHT22;6065;48.138;16.402;2022-09-03T12:01:14;24.80;90.50
12013;DHT22;6065;48.138;16.402;2022-09-03T12:03:42;24.90;90.70
12013;DHT22;6065;48.138;16.402;2022-09-03T12:06:18;24.90;90.60
12013;DHT22;6065;48.138;16.402;2022-09-03T12:08:56;25.00;90.10
12013;DHT22;6065;48.138;16.402;2022-09-03T12:11:31;25.00;90.80
12013;DHT22;6065;48.138;16.402;2022-09-03T12:14:01;25.10;90.80
12013;DHT22;6065;48.138;16.402;2022-09-03T12:16:46;25.10;90.30
12013;DHT22;6065;48.138;16.402;2022-09-03T12:19:18;25.10;90.20
12013;DHT22;6065;48.138;16.402;2022-09-03T12:21:47;25.10;90.10
12013;DHT22;6065;48.138;16.402;2022-09-03T12:24:14;25.10;90.40
12013;DHT22;6065;48.138;16.402;2022-09-03T12:26:41;25.20;89.60
12013;DHT22;6065;48.138;16.402;2022-09-03T12:29:19;25.30;89.90
12013;DHT22;6065;48.138;16.402;2022-09-03T12:31:47;25.30;90.10
12013;DHT22;6065;48.138;16.402;2022-09-03T12:34:15;25.30;90.40
12013;DHT22;6065;48.138;16.402;2022-09-03T12:36:42;25.30;89.80
12013;DHT22;6065;48.138;16.402;2022-09-03T12:39:10;25.40;89.40
12013;DHT22;6065;48.138;16.402;2022-09-03T12:41:45;25.40;88.60
12013;DHT22;6065;48.138;16.402;2022-09-03T12:44:23;25.40;88.30
12013;DHT22;6065;48.138;16.402;2022-09-03T12:47:00;25.40;88.50
12013;DHT22;6065;48.138;16.402;2022-09-03T12:49:32;25.50;88.60
12013;DHT22;6065;48.138;16.402;2022-09-03T12:51:59;25.60;89.20
12013;DHT22;6065;48.138;16.402;2022-09-03T12:54:28;25.70;88.90
12013;DHT22;6065;48.138;16.402;2022-09-03T12:56:55;25.80;88.60
12013;DHT22;6065;48.138;16.402;2022-09-03T12:59:22;25.80;87.60
12013;DHT22;6065;48.138;16.402;2022-09-03T13:01:51;25.80;87.20
12013;DHT22;6065;48.138;16.402;2022-09-03T13:04:22;25.80;87.50
12013;DHT22;6065;48.138;16.402;2022-09-03T13:06:52;25.80;87.30
12013;DHT22;6065;48.138;16.402;2022-09-03T13:09:21;25.90;87.40
12013;DHT22;6065;48.138;16.402;2022-09-03T13:11:48;25.90;86.90
12013;DHT22;6065;48.138;16.402;2022-09-03T13:14:16;26.00;86.60
12013;DHT22;6065;48.138;16.402;2022-09-03T13:19:28;26.00;86.80
12013;DHT22;6065;48.138;16.402;2022-09-03T13:22:01;26.10;87.50
12013;DHT22;6065;48.138;16.402;2022-09-03T13:24:39;26.10;86.60
12013;DHT22;6065;48.138;16.402;2022-09-03T13:27:11;26.10;86.50
12013;DHT22;6065;48.138;16.402;2022-09-03T13:29:47;26.20;86.60
12013;DHT22;6065;48.138;16.402;2022-09-03T13:32:22;26.20;86.20
12013;DHT22;6065;48.138;16.402;2022-09-03T13:34:53;26.20;85.90
12013;DHT22;6065;48.138;16.402;2022-09-03T13:37:25;26.20;86.40
12013;DHT22;6065;48.138;16.402;2022-09-03T13:39:53;26.20;86.00
12013;DHT22;6065;48.138;16.402;2022-09-03T13:42:21;26.10;86.30
12013;DHT22;6065;48.138;16.402;2022-09-03T13:44:54;26.10;86.90
12013;DHT22;6065;48.138;16.402;2022-09-03T13:47:25;26.00;86.70
12013;DHT22;6065;48.138;16.402;2022-09-03T13:49:55;25.90;86.70
12013;DHT22;6065;48.138;16.402;2022-09-03T13:52:45;25.90;87.00
12013;DHT22;6065;48.138;16.402;2022-09-03T13:55:15;25.80;86.70
12013;DHT22;6065;48.138;16.402;2022-09-03T13:57:46;25.80;87.30
12013;DHT22;6065;48.138;16.402;2022-09-03T14:00:22;25.70;87.90
12013;DHT22;6065;48.138;16.402;2022-09-03T14:02:50;25.70;87.50
12013;DHT22;6065;48.138;16.402;2022-09-03T14:05:22;25.70;87.60
12013;DHT22;6065;48.138;16.402;2022-09-03T14:07:55;25.70;88.10
12013;DHT22;6065;48.138;16.402;2022-09-03T14:10:26;25.70;88.20
12013;DHT22;6065;48.138;16.402;2022-09-03T14:13:01;25.60;87.70
12013;DHT22;6065;48.138;16.402;2022-09-03T14:15:33;25.70;88.00
12013;DHT22;6065;48.138;16.402;2022-09-03T14:18:07;25.70;87.40
12013;DHT22;6065;48.138;16.402;2022-09-03T14:20:38;25.80;87.30
12013;DHT22;6065;48.138;16.402;2022-09-03T14:23:09;25.90;87.10
12013;DHT22;6065;48.138;16.402;2022-09-03T14:25:50;26.00;87.20
12013;DHT22;6065;48.138;16.402;2022-09-03T14:28:19;26.00;87.10
12013;DHT22;6065;48.138;16.402;2022-09-03T14:30:54;26.00;86.50
12013;DHT22;6065;48.138;16.402;2022-09-03T14:33:24;26.10;86.40
12013;DHT22;6065;48.138;16.402;2022-09-03T14:36:00;26.10;86.70
12013;DHT22;6065;48.138;16.402;2022-09-03T14:38:39;26.10;86.60
12013;DHT22;6065;48.138;16.402;2022-09-03T14:41:18;26.10;86.60
12013;DHT22;6065;48.138;16.402;2022-09-03T14:44:00;26.10;86.30
12013;DHT22;6065;48.138;16.402;2022-09-03T14:46:35;26.10;86.90
12013;DHT22;6065;48.138;16.402;2022-09-03T14:49:12;26.10;87.20
12013;DHT22;6065;48.138;16.402;2022-09-03T14:51:49;26.10;87.20
12013;DHT22;6065;48.138;16.402;2022-09-03T14:54:42;26.10;86.90
12013;DHT22;6065;48.138;16.402;2022-09-03T14:57:19;26.20;86.90
12013;DHT22;6065;48.138;16.402;2022-09-03T15:00:02;26.20;88.20
12013;DHT22;6065;48.138;16.402;2022-09-03T15:02:45;26.10;86.90
12013;DHT22;6065;48.138;16.402;2022-09-03T15:05:14;26.10;87.20
12013;DHT22;6065;48.138;16.402;2022-09-03T15:07:46;26.00;87.40
12013;DHT22;6065;48.138;16.402;2022-09-03T15:10:15;26.00;87.50
12013;DHT22;6065;48.138;16.402;2022-09-03T15:12:45;25.90;87.40
12013;DHT22;6065;48.138;16.402;2022-09-03T15:15:16;25.90;87.30
12013;DHT22;6065;48.138;16.402;2022-09-03T15:17:46;25.80;87.40
12013;DHT22;6065;48.138;16.402;2022-09-03T15:20:18;25.80;88.00
12013;DHT22;6065;48.138;16.402;2022-09-03T15:23:01;25.70;88.10
12013;DHT22;6065;48.138;16.402;2022-09-03T15:25:30;25.60;88.20
12013;DHT22;6065;48.138;16.402;2022-09-03T15:28:04;25.60;88.00
12013;DHT22;6065;48.138;16.402;2022-09-03T15:30:33;25.60;88.40
12013;DHT22;6065;48.138;16.402;2022-09-03T15:33:04;25.50;88.40
12013;DHT22;6065;48.138;16.402;2022-09-03T15:35:36;25.50;88.40
12013;DHT22;6065;48.138;16.402;2022-09-03T15:38:06;25.60;88.30
12013;DHT22;6065;48.138;16.402;2022-09-03T15:40:35;25.60;88.00
12013;DHT22;6065;48.138;16.402;2022-09-03T15:43:08;25.60;88.30
12013;DHT22;6065;48.138;16.402;2022-09-03T15:45:38;25.60;88.00
12013;DHT22;6065;48.138;16.402;2022-09-03T15:48:12;25.60;87.90
12013;DHT22;6065;48.138;16.402;2022-09-03T15:50:51;25.60;87.90
12013;DHT22;6065;48.138;16.402;2022-09-03T15:53:28;25.50;88.40